AFR1531 DAOO-LFPG
Flight info
| Callsign | AFR1531 |
|---|---|
| Flight time | 2h 17m |
| Altitude | 36000 |
| Route | SID74 HAMRA DCT IZA DCT OKITI DCT GODOX DCT EPAMA DCT MARTA DCT EBROX DCT LATRO DCT OLOXO DCT OKABI DCT TOU DCT POI DCT PEPAX UT182 KEPER |
| Aircraft | A320/M-SDE2E3FGIJ1RWY/HB1 |
Departure
| Time | 2026-04-23 06:24 |
|---|---|
| Airport | Oran Es-Sénia (Ahmed Ben Bella) International Airport (DAOO) |
Arrival
| Time | 2026-04-23 08:41 |
|---|---|
| Airport | Charles de Gaulle International Airport (LFPG) |
| Time | Latitude | Longitude | Altitude | Speed | Heading |
|---|---|---|---|---|---|
| 2026-04-23 05:50 | 35.61955 | -0.61047 | 304 ft | 0 kts | 155° |
| 2026-04-23 06:14 | 35.61978 | -0.61059 | 291 ft | 4 kts | 158° |
| 2026-04-23 06:14 | 35.62003 | -0.61071 | 304 ft | 4 kts | 163° |
| 2026-04-23 06:14 | 35.62029 | -0.61078 | 304 ft | 4 kts | 179° |
| 2026-04-23 06:14 | 35.62052 | -0.61072 | 303 ft | 4 kts | 233° |
| 2026-04-23 06:15 | 35.62055 | -0.61067 | 303 ft | 0 kts | 245° |
| 2026-04-23 06:18 | 35.62050 | -0.61081 | 305 ft | 10 kts | 245° |
| 2026-04-23 06:18 | 35.62012 | -0.61190 | 306 ft | 14 kts | 249° |
| 2026-04-23 06:18 | 35.61982 | -0.61295 | 305 ft | 12 kts | 254° |
| 2026-04-23 06:19 | 35.62004 | -0.61380 | 305 ft | 10 kts | 305° |
| 2026-04-23 06:19 | 35.62017 | -0.61474 | 303 ft | 12 kts | 253° |
| 2026-04-23 06:19 | 35.61971 | -0.61611 | 304 ft | 23 kts | 247° |
| 2026-04-23 06:19 | 35.61909 | -0.61794 | 303 ft | 23 kts | 247° |
| 2026-04-23 06:20 | 35.61845 | -0.61980 | 303 ft | 24 kts | 248° |
| 2026-04-23 06:20 | 35.61780 | -0.62171 | 305 ft | 25 kts | 246° |
| 2026-04-23 06:20 | 35.61710 | -0.62370 | 303 ft | 26 kts | 246° |
| 2026-04-23 06:20 | 35.61637 | -0.62580 | 303 ft | 28 kts | 247° |
| 2026-04-23 06:21 | 35.61565 | -0.62788 | 301 ft | 26 kts | 247° |
| 2026-04-23 06:21 | 35.61493 | -0.63000 | 304 ft | 27 kts | 247° |
| 2026-04-23 06:21 | 35.61418 | -0.63222 | 302 ft | 29 kts | 248° |
| 2026-04-23 06:21 | 35.61339 | -0.63452 | 302 ft | 23 kts | 247° |
| 2026-04-23 06:22 | 35.61275 | -0.63640 | 302 ft | 24 kts | 247° |
| 2026-04-23 06:22 | 35.61217 | -0.63832 | 299 ft | 24 kts | 261° |
| 2026-04-23 06:22 | 35.61291 | -0.64002 | 299 ft | 24 kts | 329° |
| 2026-04-23 06:22 | 35.61447 | -0.64088 | 301 ft | 25 kts | 336° |
| 2026-04-23 06:23 | 35.61585 | -0.64157 | 303 ft | 21 kts | 340° |
| 2026-04-23 06:23 | 35.61705 | -0.64093 | 301 ft | 25 kts | 59° |
| 2026-04-23 06:23 | 35.61862 | -0.63640 | 303 ft | 92 kts | 67° |
| 2026-04-23 06:23 | 35.62189 | -0.62684 | 302 ft | 147 kts | 67° |
| 2026-04-23 06:24 | 35.62605 | -0.61402 | 657 ft | 162 kts | 66° |
| 2026-04-23 06:24 | 35.63018 | -0.60114 | 1339 ft | 162 kts | 69° |
| 2026-04-23 06:24 | 35.63456 | -0.58840 | 2043 ft | 162 kts | 70° |
| 2026-04-23 06:24 | 35.63897 | -0.57564 | 2643 ft | 162 kts | 72° |
| 2026-04-23 06:25 | 35.64341 | -0.56280 | 3182 ft | 164 kts | 73° |
| 2026-04-23 06:25 | 35.64784 | -0.54991 | 3634 ft | 171 kts | 73° |
| 2026-04-23 06:25 | 35.65271 | -0.53548 | 3863 ft | 194 kts | 73° |
| 2026-04-23 06:25 | 35.65927 | -0.51983 | 4083 ft | 221 kts | 57° |
| 2026-04-23 06:26 | 35.67108 | -0.50596 | 4335 ft | 251 kts | 35° |
| 2026-04-23 06:26 | 35.68806 | -0.49745 | 4669 ft | 279 kts | 12° |
| 2026-04-23 06:26 | 35.70766 | -0.49325 | 5289 ft | 289 kts | 11° |
| 2026-04-23 06:26 | 35.72758 | -0.48888 | 6142 ft | 291 kts | 11° |
| 2026-04-23 06:27 | 35.74756 | -0.48440 | 7002 ft | 293 kts | 11° |
| 2026-04-23 06:27 | 35.76769 | -0.47984 | 7829 ft | 295 kts | 11° |
| 2026-04-23 06:27 | 35.78800 | -0.47522 | 8640 ft | 299 kts | 11° |
| 2026-04-23 06:27 | 35.80827 | -0.46888 | 9421 ft | 303 kts | 21° |
| 2026-04-23 06:28 | 35.82693 | -0.45668 | 10206 ft | 307 kts | 35° |
| 2026-04-23 06:28 | 35.84387 | -0.43925 | 10526 ft | 329 kts | 42° |
| 2026-04-23 06:28 | 35.86141 | -0.41965 | 10761 ft | 352 kts | 42° |
| 2026-04-23 06:28 | 35.88010 | -0.39864 | 11006 ft | 372 kts | 42° |
| 2026-04-23 06:29 | 35.89946 | -0.37685 | 11566 ft | 380 kts | 42° |
| 2026-04-23 06:29 | 35.91913 | -0.35477 | 12285 ft | 383 kts | 41° |
| 2026-04-23 06:29 | 35.93871 | -0.33280 | 12961 ft | 387 kts | 41° |
| 2026-04-23 06:29 | 35.95869 | -0.31037 | 13700 ft | 389 kts | 41° |
| 2026-04-23 06:30 | 35.97881 | -0.28780 | 14322 ft | 393 kts | 40° |
| 2026-04-23 06:30 | 35.99913 | -0.26499 | 14954 ft | 395 kts | 41° |
| 2026-04-23 06:30 | 36.01958 | -0.24206 | 15549 ft | 399 kts | 40° |
| 2026-04-23 06:30 | 36.04027 | -0.21887 | 16159 ft | 402 kts | 40° |
| 2026-04-23 06:31 | 36.06105 | -0.19554 | 16760 ft | 405 kts | 41° |
| 2026-04-23 06:31 | 36.08199 | -0.17202 | 17360 ft | 409 kts | 41° |
| 2026-04-23 06:31 | 36.10312 | -0.14822 | 17961 ft | 412 kts | 40° |
| 2026-04-23 06:31 | 36.12443 | -0.12420 | 18521 ft | 416 kts | 40° |
| 2026-04-23 06:32 | 36.14582 | -0.10005 | 19028 ft | 419 kts | 40° |
| 2026-04-23 06:32 | 36.16745 | -0.07562 | 19523 ft | 422 kts | 40° |
| 2026-04-23 06:32 | 36.18924 | -0.05101 | 20003 ft | 426 kts | 40° |
| 2026-04-23 06:32 | 36.21119 | -0.02619 | 20483 ft | 429 kts | 40° |
| 2026-04-23 06:33 | 36.23330 | -0.00121 | 20954 ft | 432 kts | 40° |
| 2026-04-23 06:33 | 36.25622 | 0.02198 | 21437 ft | 431 kts | 32° |
| 2026-04-23 06:33 | 36.28232 | 0.04016 | 21879 ft | 430 kts | 21° |
| 2026-04-23 06:33 | 36.31059 | 0.05223 | 22307 ft | 430 kts | 11° |
| 2026-04-23 06:34 | 36.34005 | 0.05793 | 22730 ft | 429 kts | 1° |
| 2026-04-23 06:34 | 36.36984 | 0.05724 | 23142 ft | 428 kts | 351° |
| 2026-04-23 06:34 | 36.39947 | 0.05251 | 23547 ft | 430 kts | 350° |
| 2026-04-23 06:34 | 36.42921 | 0.04768 | 23884 ft | 433 kts | 350° |
| 2026-04-23 06:35 | 36.45919 | 0.04283 | 24229 ft | 435 kts | 350° |
| 2026-04-23 06:35 | 36.48927 | 0.03798 | 24567 ft | 437 kts | 350° |
| 2026-04-23 06:35 | 36.51951 | 0.03308 | 24901 ft | 438 kts | 350° |
| 2026-04-23 06:35 | 36.54950 | 0.02823 | 25215 ft | 440 kts | 350° |
| 2026-04-23 06:36 | 36.57995 | 0.02334 | 25526 ft | 442 kts | 350° |
| 2026-04-23 06:36 | 36.61052 | 0.01845 | 25833 ft | 444 kts | 350° |
| 2026-04-23 06:36 | 36.64136 | 0.01354 | 26131 ft | 446 kts | 350° |
| 2026-04-23 06:36 | 36.67233 | 0.00856 | 26429 ft | 448 kts | 350° |
| 2026-04-23 06:37 | 36.70328 | 0.00356 | 26713 ft | 450 kts | 350° |
| 2026-04-23 06:37 | 36.73442 | -0.00148 | 26986 ft | 452 kts | 350° |
| 2026-04-23 06:37 | 36.76567 | -0.00656 | 27240 ft | 454 kts | 349° |
| 2026-04-23 06:37 | 36.79707 | -0.01165 | 27487 ft | 456 kts | 349° |
| 2026-04-23 06:38 | 36.82835 | -0.01538 | 27694 ft | 461 kts | 356° |
| 2026-04-23 06:38 | 36.86054 | -0.01287 | 27931 ft | 466 kts | 6° |
| 2026-04-23 06:38 | 36.89216 | -0.00339 | 28251 ft | 469 kts | 16° |
| 2026-04-23 06:38 | 36.92220 | 0.01272 | 28647 ft | 470 kts | 26° |
| 2026-04-23 06:39 | 36.95070 | 0.03280 | 29036 ft | 469 kts | 27° |
| 2026-04-23 06:39 | 36.97906 | 0.05294 | 29388 ft | 468 kts | 27° |
| 2026-04-23 06:39 | 37.00746 | 0.07311 | 29749 ft | 467 kts | 26° |
| 2026-04-23 06:39 | 37.03573 | 0.09320 | 30099 ft | 466 kts | 27° |
| 2026-04-23 06:40 | 37.06394 | 0.11326 | 30408 ft | 465 kts | 27° |
| 2026-04-23 06:40 | 37.09213 | 0.13333 | 30705 ft | 465 kts | 26° |
| 2026-04-23 06:40 | 37.12024 | 0.15332 | 31001 ft | 464 kts | 26° |
| 2026-04-23 06:40 | 37.14826 | 0.17324 | 31312 ft | 463 kts | 26° |
| 2026-04-23 06:41 | 37.17585 | 0.19287 | 31610 ft | 462 kts | 26° |
| 2026-04-23 06:41 | 37.20378 | 0.21282 | 31910 ft | 461 kts | 26° |
| 2026-04-23 06:41 | 37.23161 | 0.23279 | 32217 ft | 460 kts | 26° |
| 2026-04-23 06:41 | 37.25933 | 0.25271 | 32540 ft | 459 kts | 26° |
| 2026-04-23 06:42 | 37.28709 | 0.27265 | 32847 ft | 458 kts | 26° |
| 2026-04-23 06:42 | 37.31481 | 0.29251 | 33151 ft | 457 kts | 26° |
| 2026-04-23 06:42 | 37.34244 | 0.31232 | 33455 ft | 457 kts | 26° |
| 2026-04-23 06:42 | 37.37003 | 0.33212 | 33766 ft | 456 kts | 26° |
| 2026-04-23 06:43 | 37.39753 | 0.35189 | 34075 ft | 455 kts | 26° |
| 2026-04-23 06:43 | 37.42503 | 0.37167 | 34327 ft | 455 kts | 26° |
| 2026-04-23 06:43 | 37.45255 | 0.39149 | 34595 ft | 454 kts | 26° |
| 2026-04-23 06:43 | 37.47990 | 0.41121 | 34871 ft | 453 kts | 26° |
| 2026-04-23 06:44 | 37.50684 | 0.43067 | 35128 ft | 452 kts | 26° |
| 2026-04-23 06:44 | 37.53415 | 0.45044 | 35367 ft | 452 kts | 26° |
| 2026-04-23 06:44 | 37.56138 | 0.47013 | 35595 ft | 451 kts | 26° |
| 2026-04-23 06:44 | 37.58865 | 0.48984 | 35810 ft | 451 kts | 26° |
| 2026-04-23 06:45 | 37.61591 | 0.50953 | 35997 ft | 451 kts | 26° |
| 2026-04-23 06:45 | 37.64321 | 0.52923 | 36058 ft | 453 kts | 26° |
| 2026-04-23 06:45 | 37.69812 | 0.56906 | 36058 ft | 455 kts | 26° |
| 2026-04-23 06:46 | 37.75262 | 0.60876 | 36067 ft | 455 kts | 26° |
| 2026-04-23 06:46 | 37.80750 | 0.64869 | 36068 ft | 455 kts | 26° |
| 2026-04-23 06:47 | 37.86243 | 0.68867 | 36070 ft | 455 kts | 26° |
| 2026-04-23 06:47 | 37.91731 | 0.72878 | 36075 ft | 455 kts | 26° |
| 2026-04-23 06:48 | 37.97218 | 0.76887 | 36095 ft | 455 kts | 26° |
| 2026-04-23 06:48 | 38.02700 | 0.80901 | 36098 ft | 455 kts | 26° |
| 2026-04-23 06:49 | 38.08169 | 0.84920 | 36096 ft | 454 kts | 26° |
| 2026-04-23 06:49 | 38.13640 | 0.88945 | 36097 ft | 454 kts | 26° |
| 2026-04-23 06:50 | 38.19105 | 0.92975 | 36110 ft | 454 kts | 26° |
| 2026-04-23 06:50 | 38.24534 | 0.96989 | 36105 ft | 454 kts | 26° |
| 2026-04-23 06:51 | 38.29999 | 1.01032 | 36105 ft | 454 kts | 26° |
| 2026-04-23 06:51 | 38.35464 | 1.05072 | 36103 ft | 454 kts | 26° |
| 2026-04-23 06:52 | 38.40928 | 1.09118 | 36098 ft | 454 kts | 26° |
| 2026-04-23 06:52 | 38.46385 | 1.13173 | 36098 ft | 454 kts | 26° |
| 2026-04-23 06:53 | 38.51844 | 1.17243 | 36112 ft | 454 kts | 26° |
| 2026-04-23 06:53 | 38.57255 | 1.21289 | 36111 ft | 453 kts | 26° |
| 2026-04-23 06:54 | 38.62702 | 1.25363 | 36103 ft | 453 kts | 26° |
| 2026-04-23 06:54 | 38.68145 | 1.29430 | 36108 ft | 453 kts | 26° |
| 2026-04-23 06:55 | 38.73589 | 1.33506 | 36101 ft | 453 kts | 26° |
| 2026-04-23 06:55 | 38.79033 | 1.37599 | 36097 ft | 453 kts | 26° |
| 2026-04-23 06:56 | 38.84471 | 1.41695 | 36097 ft | 453 kts | 26° |
| 2026-04-23 06:56 | 38.90092 | 1.45200 | 36106 ft | 445 kts | 12° |
| 2026-04-23 06:57 | 38.96130 | 1.46344 | 36100 ft | 435 kts | 354° |
| 2026-04-23 06:57 | 39.02089 | 1.45648 | 36094 ft | 432 kts | 350° |
| 2026-04-23 06:58 | 39.08085 | 1.44859 | 36096 ft | 433 kts | 351° |
| 2026-04-23 06:58 | 39.14083 | 1.44082 | 36110 ft | 433 kts | 351° |
| 2026-04-23 06:59 | 39.20083 | 1.43313 | 36112 ft | 433 kts | 351° |
| 2026-04-23 06:59 | 39.26062 | 1.42546 | 36117 ft | 434 kts | 351° |
| 2026-04-23 07:00 | 39.32070 | 1.41761 | 36122 ft | 434 kts | 350° |
| 2026-04-23 07:00 | 39.38083 | 1.40962 | 36130 ft | 434 kts | 350° |
| 2026-04-23 07:01 | 39.44086 | 1.40168 | 36131 ft | 434 kts | 350° |
| 2026-04-23 07:01 | 39.50097 | 1.39377 | 36133 ft | 434 kts | 350° |
| 2026-04-23 07:02 | 39.56111 | 1.38591 | 36133 ft | 434 kts | 351° |
| 2026-04-23 07:02 | 39.62125 | 1.37807 | 36143 ft | 434 kts | 351° |
| 2026-04-23 07:03 | 39.68096 | 1.37021 | 36149 ft | 434 kts | 350° |
| 2026-04-23 07:03 | 39.74107 | 1.36211 | 36147 ft | 434 kts | 350° |
| 2026-04-23 07:04 | 39.80122 | 1.35408 | 36161 ft | 434 kts | 351° |
| 2026-04-23 07:04 | 39.85124 | 1.34746 | 36162 ft | 434 kts | 351° |
| 2026-04-23 07:05 | 39.92107 | 1.33819 | 36157 ft | 434 kts | 351° |
| 2026-04-23 07:05 | 39.98114 | 1.33019 | 36162 ft | 434 kts | 350° |
| 2026-04-23 07:06 | 40.03106 | 1.32345 | 36174 ft | 433 kts | 350° |
| 2026-04-23 07:06 | 40.09106 | 1.31536 | 36171 ft | 433 kts | 350° |
| 2026-04-23 07:07 | 40.15112 | 1.30724 | 36172 ft | 433 kts | 350° |
| 2026-04-23 07:07 | 40.21111 | 1.29922 | 36173 ft | 433 kts | 351° |
| 2026-04-23 07:08 | 40.27107 | 1.29121 | 36184 ft | 433 kts | 351° |
| 2026-04-23 07:08 | 40.33103 | 1.28316 | 36183 ft | 433 kts | 351° |
| 2026-04-23 07:09 | 40.39097 | 1.27501 | 36175 ft | 433 kts | 350° |
| 2026-04-23 07:09 | 40.45048 | 1.26691 | 36182 ft | 432 kts | 351° |
| 2026-04-23 07:10 | 40.51039 | 1.25880 | 36186 ft | 432 kts | 351° |
| 2026-04-23 07:10 | 40.57026 | 1.25065 | 36196 ft | 432 kts | 351° |
| 2026-04-23 07:11 | 40.63014 | 1.24247 | 36189 ft | 432 kts | 351° |
| 2026-04-23 07:12 | 40.72039 | 1.23768 | 36194 ft | 439 kts | 5° |
| 2026-04-23 07:12 | 40.78010 | 1.25752 | 36193 ft | 443 kts | 11° |
| 2026-04-23 07:13 | 40.83921 | 1.27866 | 36197 ft | 443 kts | 11° |
| 2026-04-23 07:13 | 40.89880 | 1.29988 | 36198 ft | 443 kts | 11° |
| 2026-04-23 07:14 | 40.95831 | 1.32130 | 36214 ft | 443 kts | 11° |
| 2026-04-23 07:14 | 41.01793 | 1.34282 | 36214 ft | 443 kts | 11° |
| 2026-04-23 07:15 | 41.07703 | 1.36414 | 36209 ft | 443 kts | 11° |
| 2026-04-23 07:15 | 41.13657 | 1.38572 | 36218 ft | 443 kts | 11° |
| 2026-04-23 07:16 | 41.19603 | 1.40735 | 36207 ft | 443 kts | 11° |
| 2026-04-23 07:16 | 41.25546 | 1.42892 | 36208 ft | 443 kts | 11° |
| 2026-04-23 07:17 | 41.31494 | 1.45055 | 36209 ft | 443 kts | 11° |
| 2026-04-23 07:17 | 41.37435 | 1.47225 | 36209 ft | 442 kts | 11° |
| 2026-04-23 07:18 | 41.43377 | 1.49401 | 36212 ft | 442 kts | 11° |
| 2026-04-23 07:18 | 41.49278 | 1.51569 | 36208 ft | 442 kts | 11° |
| 2026-04-23 07:19 | 41.55205 | 1.53745 | 36221 ft | 442 kts | 11° |
| 2026-04-23 07:19 | 41.61137 | 1.55918 | 36215 ft | 441 kts | 11° |
| 2026-04-23 07:20 | 41.67052 | 1.58082 | 36212 ft | 440 kts | 11° |
| 2026-04-23 07:20 | 41.72962 | 1.60257 | 36212 ft | 440 kts | 11° |
| 2026-04-23 07:21 | 41.78942 | 1.61405 | 36219 ft | 430 kts | 354° |
| 2026-04-23 07:21 | 41.84815 | 1.60618 | 36209 ft | 426 kts | 349° |
| 2026-04-23 07:22 | 41.90712 | 1.59690 | 36199 ft | 426 kts | 349° |
| 2026-04-23 07:22 | 41.96611 | 1.58754 | 36196 ft | 426 kts | 349° |
| 2026-04-23 07:23 | 42.02500 | 1.57815 | 36211 ft | 426 kts | 349° |
| 2026-04-23 07:23 | 42.08383 | 1.56880 | 36195 ft | 425 kts | 349° |
| 2026-04-23 07:24 | 42.14231 | 1.55961 | 36197 ft | 425 kts | 349° |
| 2026-04-23 07:24 | 42.20124 | 1.55028 | 36215 ft | 425 kts | 349° |
| 2026-04-23 07:25 | 42.26002 | 1.54094 | 36209 ft | 425 kts | 349° |
| 2026-04-23 07:25 | 42.31868 | 1.53151 | 36206 ft | 424 kts | 349° |
| 2026-04-23 07:26 | 42.37699 | 1.52205 | 36179 ft | 424 kts | 349° |
| 2026-04-23 07:26 | 42.43567 | 1.51258 | 36187 ft | 425 kts | 349° |
| 2026-04-23 07:27 | 42.49443 | 1.50310 | 36177 ft | 425 kts | 349° |
| 2026-04-23 07:27 | 42.55317 | 1.49370 | 36174 ft | 425 kts | 349° |
| 2026-04-23 07:28 | 42.61193 | 1.48430 | 36166 ft | 425 kts | 349° |
| 2026-04-23 07:28 | 42.67082 | 1.47485 | 36163 ft | 425 kts | 349° |
| 2026-04-23 07:29 | 42.72955 | 1.46538 | 36156 ft | 425 kts | 349° |
| 2026-04-23 07:29 | 42.78794 | 1.45592 | 36139 ft | 425 kts | 349° |
| 2026-04-23 07:30 | 42.84667 | 1.44647 | 36154 ft | 424 kts | 349° |
| 2026-04-23 07:30 | 42.90543 | 1.43699 | 36140 ft | 425 kts | 349° |
| 2026-04-23 07:31 | 42.96416 | 1.42745 | 36140 ft | 425 kts | 349° |
| 2026-04-23 07:31 | 43.02256 | 1.41797 | 36148 ft | 425 kts | 349° |
| 2026-04-23 07:32 | 43.08118 | 1.40839 | 36146 ft | 425 kts | 349° |
| 2026-04-23 07:32 | 43.13990 | 1.39882 | 36141 ft | 424 kts | 349° |
| 2026-04-23 07:33 | 43.19855 | 1.38921 | 36142 ft | 424 kts | 349° |
| 2026-04-23 07:33 | 43.25725 | 1.37958 | 36147 ft | 424 kts | 349° |
| 2026-04-23 07:34 | 43.31551 | 1.37009 | 36145 ft | 424 kts | 349° |
| 2026-04-23 07:34 | 43.37419 | 1.36055 | 36146 ft | 425 kts | 349° |
| 2026-04-23 07:35 | 43.43285 | 1.35086 | 36155 ft | 424 kts | 349° |
| 2026-04-23 07:35 | 43.49154 | 1.34116 | 36150 ft | 425 kts | 349° |
| 2026-04-23 07:36 | 43.55019 | 1.33145 | 36149 ft | 425 kts | 349° |
| 2026-04-23 07:36 | 43.60887 | 1.32175 | 36180 ft | 425 kts | 349° |
| 2026-04-23 07:37 | 43.66761 | 1.31201 | 36186 ft | 425 kts | 349° |
| 2026-04-23 07:37 | 43.72508 | 1.29520 | 36182 ft | 421 kts | 343° |
| 2026-04-23 07:38 | 43.78167 | 1.27633 | 36174 ft | 421 kts | 343° |
| 2026-04-23 07:38 | 43.83877 | 1.25736 | 36174 ft | 421 kts | 343° |
| 2026-04-23 07:39 | 43.89579 | 1.23835 | 36165 ft | 421 kts | 343° |
| 2026-04-23 07:39 | 43.95287 | 1.21936 | 36162 ft | 421 kts | 343° |
| 2026-04-23 07:40 | 44.00949 | 1.20040 | 36158 ft | 421 kts | 343° |
| 2026-04-23 07:40 | 44.06654 | 1.18123 | 36173 ft | 421 kts | 343° |
| 2026-04-23 07:41 | 44.12346 | 1.16212 | 36166 ft | 420 kts | 343° |
| 2026-04-23 07:41 | 44.18042 | 1.14294 | 36148 ft | 420 kts | 343° |
| 2026-04-23 07:42 | 44.23696 | 1.12380 | 36157 ft | 421 kts | 343° |
| 2026-04-23 07:42 | 44.29399 | 1.10448 | 36156 ft | 421 kts | 343° |
| 2026-04-23 07:43 | 44.35100 | 1.08522 | 36160 ft | 421 kts | 343° |
| 2026-04-23 07:43 | 44.40807 | 1.06588 | 36161 ft | 422 kts | 343° |
| 2026-04-23 07:44 | 44.46507 | 1.04653 | 36177 ft | 421 kts | 343° |
| 2026-04-23 07:44 | 44.52211 | 1.02704 | 36172 ft | 421 kts | 343° |
| 2026-04-23 07:45 | 44.57909 | 1.00762 | 36178 ft | 421 kts | 343° |
| 2026-04-23 07:45 | 44.63565 | 0.98831 | 36192 ft | 420 kts | 343° |
| 2026-04-23 07:46 | 44.69247 | 0.96881 | 36188 ft | 420 kts | 343° |
| 2026-04-23 07:46 | 44.74936 | 0.94927 | 36185 ft | 420 kts | 343° |
| 2026-04-23 07:47 | 44.80567 | 0.92988 | 36186 ft | 420 kts | 343° |
| 2026-04-23 07:47 | 44.86240 | 0.91034 | 36184 ft | 419 kts | 343° |
| 2026-04-23 07:48 | 44.91906 | 0.89084 | 36182 ft | 419 kts | 343° |
| 2026-04-23 07:48 | 44.97573 | 0.87120 | 36181 ft | 419 kts | 343° |
| 2026-04-23 07:49 | 45.03234 | 0.85154 | 36183 ft | 419 kts | 343° |
| 2026-04-23 07:49 | 45.08897 | 0.83194 | 36181 ft | 418 kts | 343° |
| 2026-04-23 07:50 | 45.14544 | 0.81227 | 36181 ft | 418 kts | 343° |
| 2026-04-23 07:50 | 45.20201 | 0.79242 | 36193 ft | 418 kts | 343° |
| 2026-04-23 07:51 | 45.25840 | 0.77264 | 36189 ft | 417 kts | 343° |
| 2026-04-23 07:51 | 45.31482 | 0.75294 | 36161 ft | 418 kts | 343° |
| 2026-04-23 07:52 | 45.37134 | 0.73306 | 36161 ft | 418 kts | 343° |
| 2026-04-23 07:52 | 45.42756 | 0.71335 | 36172 ft | 419 kts | 343° |
| 2026-04-23 07:53 | 45.48424 | 0.69342 | 36177 ft | 419 kts | 343° |
| 2026-04-23 07:53 | 45.53122 | 0.67685 | 36181 ft | 419 kts | 343° |
| 2026-04-23 07:54 | 45.58778 | 0.65684 | 36193 ft | 418 kts | 343° |
| 2026-04-23 07:54 | 45.64430 | 0.63670 | 36193 ft | 418 kts | 343° |
| 2026-04-23 07:55 | 45.70075 | 0.61649 | 36185 ft | 418 kts | 343° |
| 2026-04-23 07:55 | 45.75711 | 0.59651 | 36188 ft | 417 kts | 343° |
| 2026-04-23 07:56 | 45.81354 | 0.57648 | 36195 ft | 417 kts | 343° |
| 2026-04-23 07:56 | 45.86979 | 0.55647 | 36190 ft | 416 kts | 343° |
| 2026-04-23 07:57 | 45.92564 | 0.53635 | 36183 ft | 416 kts | 342° |
| 2026-04-23 07:57 | 45.98183 | 0.51598 | 36192 ft | 416 kts | 343° |
| 2026-04-23 07:58 | 46.03798 | 0.49584 | 36192 ft | 416 kts | 343° |
| 2026-04-23 07:58 | 46.09409 | 0.47567 | 36190 ft | 415 kts | 343° |
| 2026-04-23 07:59 | 46.15019 | 0.45539 | 36189 ft | 415 kts | 343° |
| 2026-04-23 07:59 | 46.20581 | 0.43526 | 36198 ft | 415 kts | 342° |
| 2026-04-23 08:00 | 46.26186 | 0.41490 | 36199 ft | 414 kts | 343° |
| 2026-04-23 08:00 | 46.31783 | 0.39453 | 36176 ft | 415 kts | 343° |
| 2026-04-23 08:01 | 46.37387 | 0.37412 | 36187 ft | 415 kts | 343° |
| 2026-04-23 08:01 | 46.43002 | 0.35358 | 36205 ft | 416 kts | 343° |
| 2026-04-23 08:02 | 46.48589 | 0.33307 | 36213 ft | 417 kts | 343° |
| 2026-04-23 08:02 | 46.54217 | 0.31251 | 36217 ft | 417 kts | 343° |
| 2026-04-23 08:03 | 46.60042 | 0.30576 | 36229 ft | 425 kts | 1° |
| 2026-04-23 08:03 | 46.65896 | 0.32189 | 36232 ft | 429 kts | 7° |
| 2026-04-23 08:04 | 46.71741 | 0.33991 | 36230 ft | 429 kts | 7° |
| 2026-04-23 08:04 | 46.77551 | 0.35779 | 36227 ft | 429 kts | 7° |
| 2026-04-23 08:05 | 46.83390 | 0.37580 | 36228 ft | 429 kts | 7° |
| 2026-04-23 08:05 | 46.89228 | 0.39380 | 36226 ft | 428 kts | 7° |
| 2026-04-23 08:06 | 46.95061 | 0.41186 | 36253 ft | 428 kts | 7° |
| 2026-04-23 08:06 | 47.00885 | 0.42996 | 36257 ft | 427 kts | 7° |
| 2026-04-23 08:07 | 47.06710 | 0.44655 | 36252 ft | 422 kts | 0° |
| 2026-04-23 08:07 | 47.12483 | 0.44210 | 36246 ft | 413 kts | 347° |
| 2026-04-23 08:08 | 47.18110 | 0.42815 | 36267 ft | 413 kts | 347° |
| 2026-04-23 08:08 | 47.23774 | 0.41437 | 36268 ft | 412 kts | 347° |
| 2026-04-23 08:09 | 47.29441 | 0.40058 | 36235 ft | 413 kts | 347° |
| 2026-04-23 08:09 | 47.35117 | 0.38673 | 36247 ft | 414 kts | 347° |
| 2026-04-23 08:10 | 47.40801 | 0.37281 | 36256 ft | 414 kts | 347° |
| 2026-04-23 08:10 | 47.49341 | 0.35185 | 35441 ft | 417 kts | 347° |
| 2026-04-23 08:11 | 47.52214 | 0.34474 | 34571 ft | 418 kts | 347° |
| 2026-04-23 08:11 | 47.55083 | 0.33760 | 33635 ft | 419 kts | 347° |
| 2026-04-23 08:11 | 47.57966 | 0.33037 | 32648 ft | 421 kts | 347° |
| 2026-04-23 08:11 | 47.60861 | 0.32311 | 31677 ft | 423 kts | 348° |
| 2026-04-23 08:12 | 47.63773 | 0.31583 | 30653 ft | 426 kts | 348° |
| 2026-04-23 08:12 | 47.66717 | 0.30848 | 29420 ft | 431 kts | 349° |
| 2026-04-23 08:12 | 47.69644 | 0.30119 | 28305 ft | 432 kts | 349° |
| 2026-04-23 08:12 | 47.72655 | 0.29371 | 27111 ft | 435 kts | 349° |
| 2026-04-23 08:13 | 47.75631 | 0.28898 | 25960 ft | 438 kts | 358° |
| 2026-04-23 08:13 | 47.78685 | 0.29146 | 24829 ft | 440 kts | 7° |
| 2026-04-23 08:13 | 47.81677 | 0.30139 | 23836 ft | 440 kts | 16° |
| 2026-04-23 08:13 | 47.84517 | 0.31843 | 22814 ft | 439 kts | 26° |
| 2026-04-23 08:14 | 47.87068 | 0.34178 | 22556 ft | 419 kts | 33° |
| 2026-04-23 08:14 | 47.89361 | 0.36587 | 22384 ft | 387 kts | 33° |
| 2026-04-23 08:14 | 47.91536 | 0.38853 | 22388 ft | 376 kts | 33° |
| 2026-04-23 08:14 | 47.93670 | 0.41068 | 22153 ft | 372 kts | 33° |
| 2026-04-23 08:15 | 47.95780 | 0.43262 | 21911 ft | 368 kts | 32° |
| 2026-04-23 08:15 | 47.97870 | 0.45442 | 21652 ft | 365 kts | 32° |
| 2026-04-23 08:15 | 47.99941 | 0.47614 | 21395 ft | 363 kts | 33° |
| 2026-04-23 08:15 | 48.02005 | 0.49782 | 21144 ft | 361 kts | 33° |
| 2026-04-23 08:16 | 48.04058 | 0.51941 | 20894 ft | 358 kts | 33° |
| 2026-04-23 08:16 | 48.06060 | 0.54054 | 20685 ft | 356 kts | 33° |
| 2026-04-23 08:16 | 48.08084 | 0.56189 | 20505 ft | 356 kts | 33° |
| 2026-04-23 08:16 | 48.10101 | 0.58318 | 20237 ft | 354 kts | 33° |
| 2026-04-23 08:17 | 48.12111 | 0.60444 | 19960 ft | 353 kts | 34° |
| 2026-04-23 08:17 | 48.14115 | 0.62564 | 19694 ft | 351 kts | 34° |
| 2026-04-23 08:17 | 48.16110 | 0.64672 | 19423 ft | 350 kts | 34° |
| 2026-04-23 08:17 | 48.18095 | 0.66768 | 19150 ft | 348 kts | 34° |
| 2026-04-23 08:18 | 48.20071 | 0.68861 | 18888 ft | 347 kts | 34° |
| 2026-04-23 08:18 | 48.22039 | 0.70952 | 18616 ft | 346 kts | 34° |
| 2026-04-23 08:18 | 48.23994 | 0.73030 | 18331 ft | 343 kts | 35° |
| 2026-04-23 08:18 | 48.25919 | 0.75071 | 18062 ft | 342 kts | 35° |
| 2026-04-23 08:19 | 48.27854 | 0.77128 | 17802 ft | 341 kts | 35° |
| 2026-04-23 08:19 | 48.29782 | 0.79189 | 17541 ft | 339 kts | 36° |
| 2026-04-23 08:19 | 48.31702 | 0.81251 | 17276 ft | 338 kts | 36° |
| 2026-04-23 08:19 | 48.33553 | 0.83420 | 17013 ft | 337 kts | 43° |
| 2026-04-23 08:20 | 48.35103 | 0.86049 | 16765 ft | 336 kts | 54° |
| 2026-04-23 08:20 | 48.36288 | 0.89070 | 16494 ft | 335 kts | 62° |
| 2026-04-23 08:20 | 48.37360 | 0.92180 | 16231 ft | 333 kts | 62° |
| 2026-04-23 08:20 | 48.38426 | 0.95262 | 15973 ft | 332 kts | 62° |
| 2026-04-23 08:21 | 48.39493 | 0.98338 | 15732 ft | 331 kts | 62° |
| 2026-04-23 08:21 | 48.40557 | 1.01403 | 15471 ft | 329 kts | 62° |
| 2026-04-23 08:21 | 48.41614 | 1.04456 | 15189 ft | 329 kts | 62° |
| 2026-04-23 08:21 | 48.42667 | 1.07502 | 14753 ft | 327 kts | 62° |
| 2026-04-23 08:22 | 48.43708 | 1.10529 | 14340 ft | 324 kts | 63° |
| 2026-04-23 08:22 | 48.44739 | 1.13531 | 13918 ft | 322 kts | 63° |
| 2026-04-23 08:22 | 48.45753 | 1.16479 | 13512 ft | 319 kts | 63° |
| 2026-04-23 08:22 | 48.46769 | 1.19441 | 13111 ft | 317 kts | 63° |
| 2026-04-23 08:23 | 48.47777 | 1.22381 | 12732 ft | 315 kts | 63° |
| 2026-04-23 08:23 | 48.48763 | 1.25262 | 12580 ft | 303 kts | 63° |
| 2026-04-23 08:23 | 48.49711 | 1.28028 | 12450 ft | 291 kts | 63° |
| 2026-04-23 08:23 | 48.50627 | 1.30700 | 12265 ft | 283 kts | 63° |
| 2026-04-23 08:24 | 48.51520 | 1.33314 | 11995 ft | 279 kts | 64° |
| 2026-04-23 08:24 | 48.52407 | 1.35903 | 11741 ft | 277 kts | 64° |
| 2026-04-23 08:24 | 48.53292 | 1.38478 | 11500 ft | 275 kts | 64° |
| 2026-04-23 08:24 | 48.54170 | 1.41043 | 11251 ft | 274 kts | 64° |
| 2026-04-23 08:25 | 48.55033 | 1.43564 | 11001 ft | 273 kts | 64° |
| 2026-04-23 08:25 | 48.55902 | 1.46103 | 10761 ft | 272 kts | 64° |
| 2026-04-23 08:25 | 48.56820 | 1.48593 | 10524 ft | 272 kts | 57° |
| 2026-04-23 08:25 | 48.58098 | 1.50715 | 10287 ft | 274 kts | 42° |
| 2026-04-23 08:26 | 48.59716 | 1.52245 | 10159 ft | 277 kts | 29° |
| 2026-04-23 08:26 | 48.61452 | 1.53509 | 10024 ft | 277 kts | 30° |
| 2026-04-23 08:26 | 48.63190 | 1.54785 | 9890 ft | 277 kts | 30° |
| 2026-04-23 08:26 | 48.64921 | 1.56063 | 9756 ft | 276 kts | 30° |
| 2026-04-23 08:27 | 48.66627 | 1.57323 | 9631 ft | 276 kts | 30° |
| 2026-04-23 08:27 | 48.68354 | 1.58598 | 9499 ft | 276 kts | 30° |
| 2026-04-23 08:27 | 48.70079 | 1.59862 | 9395 ft | 276 kts | 30° |
| 2026-04-23 08:27 | 48.71802 | 1.61135 | 9241 ft | 275 kts | 30° |
| 2026-04-23 08:28 | 48.73513 | 1.62417 | 9078 ft | 274 kts | 30° |
| 2026-04-23 08:28 | 48.75214 | 1.63725 | 8894 ft | 273 kts | 34° |
| 2026-04-23 08:28 | 48.76615 | 1.65556 | 8718 ft | 261 kts | 56° |
| 2026-04-23 08:28 | 48.77596 | 1.67797 | 8539 ft | 250 kts | 60° |
| 2026-04-23 08:29 | 48.78508 | 1.69938 | 8524 ft | 233 kts | 60° |
| 2026-04-23 08:29 | 48.79354 | 1.71931 | 8519 ft | 217 kts | 60° |
| 2026-04-23 08:29 | 48.80159 | 1.73833 | 8520 ft | 213 kts | 60° |
| 2026-04-23 08:29 | 48.80953 | 1.75722 | 8520 ft | 213 kts | 60° |
| 2026-04-23 08:30 | 48.81746 | 1.77614 | 8523 ft | 212 kts | 60° |
| 2026-04-23 08:30 | 48.82539 | 1.79501 | 8524 ft | 212 kts | 60° |
| 2026-04-23 08:30 | 48.83331 | 1.81387 | 8523 ft | 212 kts | 60° |
| 2026-04-23 08:30 | 48.84126 | 1.83281 | 8520 ft | 212 kts | 60° |
| 2026-04-23 08:31 | 48.84917 | 1.85166 | 8516 ft | 212 kts | 60° |
| 2026-04-23 08:31 | 48.85713 | 1.87061 | 8518 ft | 212 kts | 60° |
| 2026-04-23 08:31 | 48.86504 | 1.88950 | 8516 ft | 212 kts | 60° |
| 2026-04-23 08:31 | 48.87286 | 1.90817 | 8517 ft | 212 kts | 60° |
| 2026-04-23 08:32 | 48.88087 | 1.92733 | 8518 ft | 212 kts | 60° |
| 2026-04-23 08:32 | 48.88868 | 1.94600 | 8517 ft | 212 kts | 61° |
| 2026-04-23 08:32 | 48.89661 | 1.96498 | 8503 ft | 213 kts | 60° |
| 2026-04-23 08:32 | 48.90477 | 1.98456 | 7971 ft | 224 kts | 61° |
| 2026-04-23 08:33 | 48.91330 | 2.00506 | 7368 ft | 234 kts | 61° |
| 2026-04-23 08:33 | 48.92222 | 2.02647 | 6772 ft | 244 kts | 61° |
| 2026-04-23 08:33 | 48.93120 | 2.04802 | 6336 ft | 234 kts | 61° |
| 2026-04-23 08:33 | 48.93955 | 2.06802 | 6173 ft | 221 kts | 61° |
| 2026-04-23 08:34 | 48.94755 | 2.08716 | 6056 ft | 208 kts | 62° |
| 2026-04-23 08:34 | 48.95515 | 2.10542 | 5971 ft | 202 kts | 62° |
| 2026-04-23 08:34 | 48.96265 | 2.12344 | 5880 ft | 201 kts | 62° |
| 2026-04-23 08:34 | 48.96889 | 2.14221 | 5765 ft | 197 kts | 78° |
| 2026-04-23 08:35 | 48.97055 | 2.16277 | 5559 ft | 195 kts | 86° |
| 2026-04-23 08:35 | 48.97168 | 2.18325 | 5313 ft | 193 kts | 86° |
| 2026-04-23 08:35 | 48.97283 | 2.20367 | 5061 ft | 194 kts | 85° |
| 2026-04-23 08:35 | 48.97399 | 2.22407 | 4802 ft | 194 kts | 85° |
| 2026-04-23 08:36 | 48.97514 | 2.24439 | 4539 ft | 191 kts | 85° |
| 2026-04-23 08:36 | 48.97628 | 2.26449 | 4282 ft | 190 kts | 86° |
| 2026-04-23 08:36 | 48.97740 | 2.28438 | 4034 ft | 188 kts | 85° |
| 2026-04-23 08:36 | 48.97851 | 2.30410 | 3778 ft | 183 kts | 86° |
| 2026-04-23 08:37 | 48.97958 | 2.32315 | 3550 ft | 179 kts | 86° |
| 2026-04-23 08:37 | 48.98064 | 2.34195 | 3326 ft | 176 kts | 86° |
| 2026-04-23 08:37 | 48.98166 | 2.36026 | 3075 ft | 170 kts | 86° |
| 2026-04-23 08:37 | 48.98264 | 2.37795 | 2844 ft | 166 kts | 86° |
| 2026-04-23 08:38 | 48.98360 | 2.39519 | 2605 ft | 160 kts | 87° |
| 2026-04-23 08:38 | 48.98452 | 2.41172 | 2401 ft | 151 kts | 88° |
| 2026-04-23 08:38 | 48.98536 | 2.42690 | 2206 ft | 137 kts | 88° |
| 2026-04-23 08:38 | 48.98612 | 2.44071 | 2042 ft | 130 kts | 86° |
| 2026-04-23 08:39 | 48.98686 | 2.45435 | 1861 ft | 129 kts | 86° |
| 2026-04-23 08:39 | 48.98761 | 2.46803 | 1682 ft | 129 kts | 86° |
| 2026-04-23 08:39 | 48.98835 | 2.48154 | 1503 ft | 126 kts | 89° |
| 2026-04-23 08:39 | 48.98907 | 2.49489 | 1338 ft | 126 kts | 85° |
| 2026-04-23 08:40 | 48.98980 | 2.50830 | 1140 ft | 129 kts | 84° |
| 2026-04-23 08:40 | 48.99054 | 2.52187 | 968 ft | 128 kts | 86° |
| 2026-04-23 08:40 | 48.99117 | 2.53530 | 813 ft | 127 kts | 84° |
| 2026-04-23 08:40 | 48.99171 | 2.54430 | 680 ft | 130 kts | 83° |
| 2026-04-23 08:41 | 48.99248 | 2.55758 | 549 ft | 125 kts | 85° |
| 2026-04-23 08:41 | 48.99319 | 2.57080 | 381 ft | 125 kts | 85° |
| 2026-04-23 08:41 | 48.99383 | 2.58279 | 356 ft | 91 kts | 85° |
| 2026-04-23 08:41 | 48.99421 | 2.58965 | 352 ft | 29 kts | 85° |
| 2026-04-23 08:42 | 48.99463 | 2.59243 | 352 ft | 26 kts | 68° |
| 2026-04-23 08:42 | 48.99533 | 2.59470 | 361 ft | 18 kts | 65° |
| 2026-04-23 08:42 | 48.99588 | 2.59638 | 358 ft | 18 kts | 52° |
| 2026-04-23 08:42 | 48.99709 | 2.59678 | 354 ft | 20 kts | 359° |
| 2026-04-23 08:43 | 48.99847 | 2.59668 | 354 ft | 16 kts | 358° |
| 2026-04-23 08:43 | 48.99961 | 2.59624 | 361 ft | 18 kts | 319° |
| 2026-04-23 08:43 | 48.99982 | 2.59458 | 354 ft | 16 kts | 266° |
| 2026-04-23 08:43 | 48.99974 | 2.59292 | 359 ft | 15 kts | 265° |
| 2026-04-23 08:44 | 48.99966 | 2.59136 | 354 ft | 15 kts | 266° |
| 2026-04-23 08:44 | 48.99959 | 2.58979 | 360 ft | 15 kts | 265° |
| 2026-04-23 08:44 | 48.99951 | 2.58829 | 356 ft | 14 kts | 265° |
| 2026-04-23 08:44 | 48.99943 | 2.58687 | 357 ft | 13 kts | 264° |
| 2026-04-23 08:45 | 48.99935 | 2.58544 | 354 ft | 13 kts | 265° |
| 2026-04-23 08:45 | 48.99927 | 2.58407 | 358 ft | 13 kts | 265° |
| 2026-04-23 08:45 | 48.99957 | 2.58303 | 356 ft | 11 kts | 340° |
| 2026-04-23 08:45 | 49.00031 | 2.58316 | 356 ft | 11 kts | 7° |
| 2026-04-23 08:46 | 49.00087 | 2.58264 | 360 ft | 10 kts | 285° |
| 2026-04-23 08:46 | 49.00084 | 2.58143 | 358 ft | 14 kts | 266° |
| 2026-04-23 08:46 | 49.00075 | 2.58001 | 354 ft | 13 kts | 265° |
| 2026-04-23 08:46 | 49.00069 | 2.57867 | 354 ft | 12 kts | 264° |
| 2026-04-23 08:47 | 49.00063 | 2.57741 | 361 ft | 12 kts | 266° |
| 2026-04-23 08:47 | 49.00057 | 2.57624 | 354 ft | 11 kts | 265° |
| 2026-04-23 08:47 | 49.00051 | 2.57513 | 357 ft | 10 kts | 265° |
| 2026-04-23 08:47 | 49.00061 | 2.57430 | 359 ft | 2 kts | 329° |
| 2026-04-23 08:48 | 49.00078 | 2.57425 | 354 ft | 5 kts | 351° |
| 2026-04-23 08:48 | 49.00109 | 2.57430 | 354 ft | 4 kts | 11° |
| 2026-04-23 08:48 | 49.00130 | 2.57437 | 354 ft | 0 kts | 12° |